Aviation Digital Data Service (ADDS)

Output produced by METARs form (0108 UTC 20 January 2018)
found at http://aviationweather.gov/adds/metars/
 
KPQI 192320Z 2000/2024 17006KT P6SM OVC022 
     FM200730 19008KT 3SM -SN OVC015 
     FM200900 19009KT 1 1/2SM -SN BR OVC008 
     FM201430 22011KT 3SM -SHSN OVC015 
     FM201700 25014G22KT P6SM BKN025